sensor_id;sensor_type;location;lat;lon;timestamp;P1;durP1;ratioP1;P2;durP2;ratioP2
817;SDS011;391;51.052;6.954;2022-07-25T00:00:57;6.40;;;5.80;;
817;SDS011;391;51.052;6.954;2022-07-25T00:03:01;6.23;;;5.63;;
817;SDS011;391;51.052;6.954;2022-07-25T00:05:05;6.20;;;5.70;;
817;SDS011;391;51.052;6.954;2022-07-25T00:07:09;7.30;;;6.60;;
817;SDS011;391;51.052;6.954;2022-07-25T00:09:13;7.10;;;6.40;;
817;SDS011;391;51.052;6.954;2022-07-25T00:11:17;6.73;;;6.10;;
817;SDS011;391;51.052;6.954;2022-07-25T00:13:20;6.63;;;6.07;;
817;SDS011;391;51.052;6.954;2022-07-25T00:15:25;6.77;;;6.20;;
817;SDS011;391;51.052;6.954;2022-07-25T00:17:29;7.00;;;6.40;;
817;SDS011;391;51.052;6.954;2022-07-25T00:19:32;6.97;;;6.27;;
817;SDS011;391;51.052;6.954;2022-07-25T00:21:36;8.40;;;7.40;;
817;SDS011;391;51.052;6.954;2022-07-25T00:23:39;7.13;;;6.43;;
817;SDS011;391;51.052;6.954;2022-07-25T00:25:43;6.53;;;5.83;;
817;SDS011;391;51.052;6.954;2022-07-25T00:27:46;6.97;;;6.33;;
817;SDS011;391;51.052;6.954;2022-07-25T00:29:50;6.93;;;6.30;;
817;SDS011;391;51.052;6.954;2022-07-25T00:31:55;6.50;;;6.00;;
817;SDS011;391;51.052;6.954;2022-07-25T00:33:59;6.33;;;5.73;;
817;SDS011;391;51.052;6.954;2022-07-25T00:36:02;6.50;;;5.90;;
817;SDS011;391;51.052;6.954;2022-07-25T00:38:07;6.30;;;5.70;;
817;SDS011;391;51.052;6.954;2022-07-25T00:40:11;7.17;;;6.47;;
817;SDS011;391;51.052;6.954;2022-07-25T00:42:15;7.23;;;6.63;;
817;SDS011;391;51.052;6.954;2022-07-25T00:44:22;6.57;;;6.07;;
817;SDS011;391;51.052;6.954;2022-07-25T00:46:26;6.80;;;6.20;;
817;SDS011;391;51.052;6.954;2022-07-25T00:48:33;7.43;;;5.93;;
817;SDS011;391;51.052;6.954;2022-07-25T00:50:37;6.67;;;6.00;;
817;SDS011;391;51.052;6.954;2022-07-25T00:52:40;6.73;;;6.23;;
817;SDS011;391;51.052;6.954;2022-07-25T00:54:44;7.00;;;6.40;;
817;SDS011;391;51.052;6.954;2022-07-25T00:56:48;6.73;;;6.03;;
817;SDS011;391;51.052;6.954;2022-07-25T00:58:53;7.10;;;6.53;;
817;SDS011;391;51.052;6.954;2022-07-25T01:00:57;12.67;;;6.90;;
817;SDS011;391;51.052;6.954;2022-07-25T01:03:02;7.83;;;6.20;;
817;SDS011;391;51.052;6.954;2022-07-25T01:05:08;6.80;;;6.20;;
817;SDS011;391;51.052;6.954;2022-07-25T01:07:12;7.30;;;6.60;;
817;SDS011;391;51.052;6.954;2022-07-25T01:09:16;7.23;;;5.93;;
817;SDS011;391;51.052;6.954;2022-07-25T01:11:22;8.00;;;5.50;;
817;SDS011;391;51.052;6.954;2022-07-25T01:13:26;7.10;;;6.50;;
817;SDS011;391;51.052;6.954;2022-07-25T01:15:30;7.03;;;6.33;;
817;SDS011;391;51.052;6.954;2022-07-25T01:17:34;6.77;;;6.07;;
817;SDS011;391;51.052;6.954;2022-07-25T01:19:37;7.83;;;7.13;;
817;SDS011;391;51.052;6.954;2022-07-25T01:21:42;7.20;;;6.60;;
817;SDS011;391;51.052;6.954;2022-07-25T01:23:46;6.40;;;5.77;;
817;SDS011;391;51.052;6.954;2022-07-25T01:25:49;7.00;;;6.30;;
817;SDS011;391;51.052;6.954;2022-07-25T01:27:53;7.83;;;6.93;;
817;SDS011;391;51.052;6.954;2022-07-25T01:30:00;8.57;;;7.60;;
817;SDS011;391;51.052;6.954;2022-07-25T01:32:04;6.63;;;5.90;;
817;SDS011;391;51.052;6.954;2022-07-25T01:34:07;7.00;;;6.30;;
817;SDS011;391;51.052;6.954;2022-07-25T01:36:11;6.43;;;5.83;;
817;SDS011;391;51.052;6.954;2022-07-25T01:38:16;7.03;;;6.33;;
817;SDS011;391;51.052;6.954;2022-07-25T01:40:20;10.83;;;6.60;;
817;SDS011;391;51.052;6.954;2022-07-25T01:42:23;8.50;;;6.97;;
817;SDS011;391;51.052;6.954;2022-07-25T01:44:27;6.77;;;6.17;;
817;SDS011;391;51.052;6.954;2022-07-25T01:46:31;6.60;;;6.03;;
817;SDS011;391;51.052;6.954;2022-07-25T01:48:34;7.03;;;6.33;;
817;SDS011;391;51.052;6.954;2022-07-25T01:50:38;8.53;;;7.20;;
817;SDS011;391;51.052;6.954;2022-07-25T01:52:41;9.00;;;7.00;;
817;SDS011;391;51.052;6.954;2022-07-25T01:54:46;7.90;;;7.10;;
817;SDS011;391;51.052;6.954;2022-07-25T01:56:50;7.53;;;6.83;;
817;SDS011;391;51.052;6.954;2022-07-25T01:58:53;7.17;;;6.47;;
817;SDS011;391;51.052;6.954;2022-07-25T02:00:57;6.63;;;6.00;;
817;SDS011;391;51.052;6.954;2022-07-25T02:03:00;7.63;;;6.83;;
817;SDS011;391;51.052;6.954;2022-07-25T02:05:27;11.57;;;7.67;;
817;SDS011;391;51.052;6.954;2022-07-25T02:07:30;8.07;;;6.50;;
817;SDS011;391;51.052;6.954;2022-07-25T02:09:34;7.30;;;6.60;;
817;SDS011;391;51.052;6.954;2022-07-25T02:11:39;7.83;;;7.13;;
817;SDS011;391;51.052;6.954;2022-07-25T02:13:43;10.57;;;7.27;;
817;SDS011;391;51.052;6.954;2022-07-25T02:15:46;8.63;;;7.53;;
817;SDS011;391;51.052;6.954;2022-07-25T02:17:50;8.00;;;6.23;;
817;SDS011;391;51.052;6.954;2022-07-25T02:19:53;7.70;;;6.90;;
817;SDS011;391;51.052;6.954;2022-07-25T02:21:57;7.40;;;6.70;;
817;SDS011;391;51.052;6.954;2022-07-25T02:24:01;6.43;;;5.93;;
817;SDS011;391;51.052;6.954;2022-07-25T02:26:05;9.70;;;5.90;;
817;SDS011;391;51.052;6.954;2022-07-25T02:28:10;7.60;;;6.80;;
817;SDS011;391;51.052;6.954;2022-07-25T02:30:14;8.40;;;6.93;;
817;SDS011;391;51.052;6.954;2022-07-25T02:32:17;6.80;;;6.20;;
817;SDS011;391;51.052;6.954;2022-07-25T02:34:21;8.53;;;7.80;;
817;SDS011;391;51.052;6.954;2022-07-25T02:36:24;6.93;;;6.23;;
817;SDS011;391;51.052;6.954;2022-07-25T02:38:28;7.63;;;6.77;;
817;SDS011;391;51.052;6.954;2022-07-25T02:40:31;10.43;;;7.43;;
817;SDS011;391;51.052;6.954;2022-07-25T02:42:35;8.47;;;6.60;;
817;SDS011;391;51.052;6.954;2022-07-25T02:44:40;7.43;;;6.73;;
817;SDS011;391;51.052;6.954;2022-07-25T02:46:44;8.00;;;7.27;;
817;SDS011;391;51.052;6.954;2022-07-25T02:48:48;8.87;;;7.97;;
817;SDS011;391;51.052;6.954;2022-07-25T02:50:51;8.33;;;7.03;;
817;SDS011;391;51.052;6.954;2022-07-25T02:52:55;8.17;;;7.37;;
817;SDS011;391;51.052;6.954;2022-07-25T02:54:58;8.40;;;7.40;;
817;SDS011;391;51.052;6.954;2022-07-25T02:57:09;12.47;;;7.77;;
817;SDS011;391;51.052;6.954;2022-07-25T02:59:13;9.90;;;8.40;;
817;SDS011;391;51.052;6.954;2022-07-25T03:01:18;13.40;;;12.00;;
817;SDS011;391;51.052;6.954;2022-07-25T03:03:22;10.37;;;7.30;;
817;SDS011;391;51.052;6.954;2022-07-25T03:05:26;9.27;;;8.37;;
817;SDS011;391;51.052;6.954;2022-07-25T03:07:30;8.67;;;7.77;;
817;SDS011;391;51.052;6.954;2022-07-25T03:09:33;8.40;;;7.10;;
817;SDS011;391;51.052;6.954;2022-07-25T03:11:37;12.30;;;7.70;;
817;SDS011;391;51.052;6.954;2022-07-25T03:13:40;10.37;;;8.17;;
817;SDS011;391;51.052;6.954;2022-07-25T03:15:44;10.67;;;7.77;;
817;SDS011;391;51.052;6.954;2022-07-25T03:17:48;10.23;;;7.90;;
817;SDS011;391;51.052;6.954;2022-07-25T03:19:53;10.87;;;7.23;;
817;SDS011;391;51.052;6.954;2022-07-25T03:21:57;14.17;;;8.00;;
817;SDS011;391;51.052;6.954;2022-07-25T03:24:01;8.80;;;7.50;;
817;SDS011;391;51.052;6.954;2022-07-25T03:26:04;7.90;;;6.93;;
817;SDS011;391;51.052;6.954;2022-07-25T03:28:08;10.67;;;8.50;;
817;SDS011;391;51.052;6.954;2022-07-25T03:30:12;11.57;;;7.80;;
817;SDS011;391;51.052;6.954;2022-07-25T03:32:16;8.83;;;7.60;;
817;SDS011;391;51.052;6.954;2022-07-25T03:34:21;9.30;;;8.10;;
817;SDS011;391;51.052;6.954;2022-07-25T03:36:24;8.10;;;7.30;;
817;SDS011;391;51.052;6.954;2022-07-25T03:38:28;9.07;;;6.80;;
817;SDS011;391;51.052;6.954;2022-07-25T03:40:31;8.63;;;7.77;;
817;SDS011;391;51.052;6.954;2022-07-25T03:42:35;10.67;;;6.83;;
817;SDS011;391;51.052;6.954;2022-07-25T03:44:39;9.60;;;6.80;;
817;SDS011;391;51.052;6.954;2022-07-25T03:46:42;7.47;;;6.87;;
817;SDS011;391;51.052;6.954;2022-07-25T03:48:46;6.50;;;5.90;;
817;SDS011;391;51.052;6.954;2022-07-25T03:50:51;7.10;;;6.50;;
817;SDS011;391;51.052;6.954;2022-07-25T03:52:55;6.57;;;5.97;;
817;SDS011;391;51.052;6.954;2022-07-25T03:54:58;6.27;;;5.50;;
817;SDS011;391;51.052;6.954;2022-07-25T03:57:01;6.20;;;5.70;;
817;SDS011;391;51.052;6.954;2022-07-25T03:59:07;6.50;;;5.90;;
817;SDS011;391;51.052;6.954;2022-07-25T04:01:12;6.33;;;5.80;;
817;SDS011;391;51.052;6.954;2022-07-25T04:03:15;7.20;;;6.50;;
817;SDS011;391;51.052;6.954;2022-07-25T04:05:19;6.57;;;5.97;;
817;SDS011;391;51.052;6.954;2022-07-25T04:07:23;7.27;;;6.57;;
817;SDS011;391;51.052;6.954;2022-07-25T04:09:27;6.40;;;5.90;;
817;SDS011;391;51.052;6.954;2022-07-25T04:11:34;7.70;;;7.07;;
817;SDS011;391;51.052;6.954;2022-07-25T04:13:39;6.67;;;6.07;;
817;SDS011;391;51.052;6.954;2022-07-25T04:15:44;6.53;;;6.03;;
817;SDS011;391;51.052;6.954;2022-07-25T04:17:47;7.10;;;6.40;;
817;SDS011;391;51.052;6.954;2022-07-25T04:19:51;8.27;;;7.60;;
817;SDS011;391;51.052;6.954;2022-07-25T04:21:55;7.87;;;7.10;;
817;SDS011;391;51.052;6.954;2022-07-25T04:24:00;11.60;;;7.27;;
817;SDS011;391;51.052;6.954;2022-07-25T04:26:04;7.60;;;6.97;;
817;SDS011;391;51.052;6.954;2022-07-25T04:28:08;6.80;;;6.17;;
817;SDS011;391;51.052;6.954;2022-07-25T04:30:12;6.77;;;5.57;;
817;SDS011;391;51.052;6.954;2022-07-25T04:32:28;7.90;;;6.03;;
817;SDS011;391;51.052;6.954;2022-07-25T04:34:32;7.37;;;6.57;;
817;SDS011;391;51.052;6.954;2022-07-25T04:36:36;10.47;;;6.80;;
817;SDS011;391;51.052;6.954;2022-07-25T04:38:39;7.90;;;7.00;;
817;SDS011;391;51.052;6.954;2022-07-25T04:40:44;9.20;;;6.60;;
817;SDS011;391;51.052;6.954;2022-07-25T04:42:48;7.67;;;7.00;;
817;SDS011;391;51.052;6.954;2022-07-25T04:44:52;7.20;;;6.50;;
817;SDS011;391;51.052;6.954;2022-07-25T04:46:55;7.87;;;6.70;;
817;SDS011;391;51.052;6.954;2022-07-25T04:48:59;8.43;;;6.80;;
817;SDS011;391;51.052;6.954;2022-07-25T04:51:02;9.30;;;7.67;;
817;SDS011;391;51.052;6.954;2022-07-25T04:53:06;8.00;;;6.83;;
817;SDS011;391;51.052;6.954;2022-07-25T04:55:10;8.63;;;6.47;;
817;SDS011;391;51.052;6.954;2022-07-25T04:57:15;7.47;;;6.77;;
817;SDS011;391;51.052;6.954;2022-07-25T04:59:20;10.97;;;7.03;;
817;SDS011;391;51.052;6.954;2022-07-25T05:01:23;8.93;;;6.93;;
817;SDS011;391;51.052;6.954;2022-07-25T05:03:28;7.50;;;6.80;;
817;SDS011;391;51.052;6.954;2022-07-25T05:05:31;8.33;;;6.03;;
817;SDS011;391;51.052;6.954;2022-07-25T05:07:35;10.73;;;7.00;;
817;SDS011;391;51.052;6.954;2022-07-25T05:09:39;7.67;;;6.87;;
817;SDS011;391;51.052;6.954;2022-07-25T05:11:42;7.20;;;6.50;;
817;SDS011;391;51.052;6.954;2022-07-25T05:13:53;7.07;;;6.37;;
817;SDS011;391;51.052;6.954;2022-07-25T05:15:57;7.67;;;6.07;;
817;SDS011;391;51.052;6.954;2022-07-25T05:18:01;8.60;;;6.60;;
817;SDS011;391;51.052;6.954;2022-07-25T05:20:05;6.73;;;6.07;;
817;SDS011;391;51.052;6.954;2022-07-25T05:22:09;8.90;;;6.67;;
817;SDS011;391;51.052;6.954;2022-07-25T05:24:13;7.20;;;6.50;;
817;SDS011;391;51.052;6.954;2022-07-25T05:26:16;7.13;;;6.07;;
817;SDS011;391;51.052;6.954;2022-07-25T05:28:20;6.67;;;6.07;;
817;SDS011;391;51.052;6.954;2022-07-25T05:30:25;7.30;;;6.60;;
817;SDS011;391;51.052;6.954;2022-07-25T05:32:28;6.63;;;5.67;;
817;SDS011;391;51.052;6.954;2022-07-25T05:34:32;7.90;;;6.80;;
817;SDS011;391;51.052;6.954;2022-07-25T05:36:35;8.70;;;6.20;;
817;SDS011;391;51.052;6.954;2022-07-25T05:38:39;13.90;;;7.07;;
817;SDS011;391;51.052;6.954;2022-07-25T05:40:43;8.80;;;6.57;;
817;SDS011;391;51.052;6.954;2022-07-25T05:42:47;7.10;;;6.40;;
817;SDS011;391;51.052;6.954;2022-07-25T05:44:51;9.93;;;7.17;;
817;SDS011;391;51.052;6.954;2022-07-25T05:46:56;9.20;;;6.93;;
817;SDS011;391;51.052;6.954;2022-07-25T05:48:59;7.63;;;6.87;;
817;SDS011;391;51.052;6.954;2022-07-25T05:51:03;7.93;;;6.27;;
817;SDS011;391;51.052;6.954;2022-07-25T05:53:07;5.77;;;5.23;;
817;SDS011;391;51.052;6.954;2022-07-25T05:55:11;10.47;;;8.50;;
817;SDS011;391;51.052;6.954;2022-07-25T05:57:15;9.37;;;7.50;;
817;SDS011;391;51.052;6.954;2022-07-25T05:59:18;7.07;;;6.33;;
817;SDS011;391;51.052;6.954;2022-07-25T06:01:23;7.80;;;7.00;;
817;SDS011;391;51.052;6.954;2022-07-25T06:03:28;9.30;;;6.30;;
817;SDS011;391;51.052;6.954;2022-07-25T06:05:31;7.63;;;6.73;;
817;SDS011;391;51.052;6.954;2022-07-25T06:07:35;9.37;;;7.07;;
817;SDS011;391;51.052;6.954;2022-07-25T06:09:38;7.37;;;6.67;;
817;SDS011;391;51.052;6.954;2022-07-25T06:11:44;7.20;;;6.50;;
817;SDS011;391;51.052;6.954;2022-07-25T06:13:55;6.40;;;5.80;;
817;SDS011;391;51.052;6.954;2022-07-25T06:16:00;7.23;;;6.47;;
817;SDS011;391;51.052;6.954;2022-07-25T06:18:03;9.33;;;7.13;;
817;SDS011;391;51.052;6.954;2022-07-25T06:20:09;7.77;;;6.27;;
817;SDS011;391;51.052;6.954;2022-07-25T06:22:13;7.03;;;6.33;;
817;SDS011;391;51.052;6.954;2022-07-25T06:24:17;11.17;;;6.43;;
817;SDS011;391;51.052;6.954;2022-07-25T06:26:20;6.97;;;6.27;;
817;SDS011;391;51.052;6.954;2022-07-25T06:28:26;7.90;;;7.10;;
817;SDS011;391;51.052;6.954;2022-07-25T06:30:29;6.50;;;5.70;;
817;SDS011;391;51.052;6.954;2022-07-25T06:32:33;7.80;;;5.80;;
817;SDS011;391;51.052;6.954;2022-07-25T06:34:37;8.47;;;6.30;;
817;SDS011;391;51.052;6.954;2022-07-25T06:36:42;8.03;;;6.93;;
817;SDS011;391;51.052;6.954;2022-07-25T06:38:45;8.57;;;6.13;;
817;SDS011;391;51.052;6.954;2022-07-25T06:40:49;7.03;;;6.53;;
817;SDS011;391;51.052;6.954;2022-07-25T06:42:53;7.60;;;6.80;;
817;SDS011;391;51.052;6.954;2022-07-25T06:44:56;9.20;;;6.83;;
817;SDS011;391;51.052;6.954;2022-07-25T06:47:00;6.60;;;5.90;;
817;SDS011;391;51.052;6.954;2022-07-25T06:49:04;7.33;;;6.50;;
817;SDS011;391;51.052;6.954;2022-07-25T06:51:08;6.77;;;6.10;;
817;SDS011;391;51.052;6.954;2022-07-25T06:53:14;7.20;;;6.50;;
817;SDS011;391;51.052;6.954;2022-07-25T06:55:17;6.73;;;5.90;;
817;SDS011;391;51.052;6.954;2022-07-25T06:57:21;7.00;;;6.30;;
817;SDS011;391;51.052;6.954;2022-07-25T06:59:25;6.77;;;6.17;;
817;SDS011;391;51.052;6.954;2022-07-25T07:01:28;7.60;;;7.00;;
817;SDS011;391;51.052;6.954;2022-07-25T07:03:32;12.60;;;6.43;;
817;SDS011;391;51.052;6.954;2022-07-25T07:05:39;8.33;;;5.70;;
817;SDS011;391;51.052;6.954;2022-07-25T07:07:43;11.10;;;8.70;;
817;SDS011;391;51.052;6.954;2022-07-25T07:09:50;8.30;;;7.50;;
817;SDS011;391;51.052;6.954;2022-07-25T07:11:54;7.23;;;5.90;;
817;SDS011;391;51.052;6.954;2022-07-25T07:13:57;6.23;;;5.43;;
817;SDS011;391;51.052;6.954;2022-07-25T07:16:01;5.70;;;5.30;;
817;SDS011;391;51.052;6.954;2022-07-25T07:18:09;6.43;;;5.93;;
817;SDS011;391;51.052;6.954;2022-07-25T07:20:13;7.00;;;5.93;;
817;SDS011;391;51.052;6.954;2022-07-25T07:22:16;8.33;;;6.60;;
817;SDS011;391;51.052;6.954;2022-07-25T07:24:23;12.53;;;5.73;;
817;SDS011;391;51.052;6.954;2022-07-25T07:26:28;6.57;;;5.53;;
817;SDS011;391;51.052;6.954;2022-07-25T07:28:31;7.17;;;5.73;;
817;SDS011;391;51.052;6.954;2022-07-25T07:30:35;6.37;;;5.73;;
817;SDS011;391;51.052;6.954;2022-07-25T07:33:01;8.37;;;5.20;;
817;SDS011;391;51.052;6.954;2022-07-25T07:35:05;6.87;;;5.60;;
817;SDS011;391;51.052;6.954;2022-07-25T07:37:09;9.20;;;5.83;;
817;SDS011;391;51.052;6.954;2022-07-25T07:39:13;6.40;;;5.80;;
817;SDS011;391;51.052;6.954;2022-07-25T07:41:17;25.53;;;8.50;;
817;SDS011;391;51.052;6.954;2022-07-25T07:43:22;19.97;;;9.10;;
817;SDS011;391;51.052;6.954;2022-07-25T07:45:31;13.30;;;6.73;;
817;SDS011;391;51.052;6.954;2022-07-25T07:47:35;22.63;;;8.20;;
817;SDS011;391;51.052;6.954;2022-07-25T07:49:38;7.53;;;6.83;;
817;SDS011;391;51.052;6.954;2022-07-25T07:51:42;8.60;;;7.00;;
817;SDS011;391;51.052;6.954;2022-07-25T07:53:46;7.60;;;6.80;;
817;SDS011;391;51.052;6.954;2022-07-25T07:56:07;8.00;;;7.40;;
817;SDS011;391;51.052;6.954;2022-07-25T07:58:10;7.70;;;7.00;;
817;SDS011;391;51.052;6.954;2022-07-25T08:00:18;7.60;;;6.90;;
817;SDS011;391;51.052;6.954;2022-07-25T08:02:22;7.23;;;6.50;;
817;SDS011;391;51.052;6.954;2022-07-25T08:04:26;7.10;;;6.60;;
817;SDS011;391;51.052;6.954;2022-07-25T08:06:30;7.67;;;7.00;;
817;SDS011;391;51.052;6.954;2022-07-25T08:08:33;7.97;;;7.37;;
817;SDS011;391;51.052;6.954;2022-07-25T08:10:38;8.00;;;7.20;;
817;SDS011;391;51.052;6.954;2022-07-25T08:12:42;8.63;;;7.97;;
817;SDS011;391;51.052;6.954;2022-07-25T08:14:45;8.00;;;7.40;;
817;SDS011;391;51.052;6.954;2022-07-25T08:16:50;7.23;;;6.67;;
817;SDS011;391;51.052;6.954;2022-07-25T08:18:54;8.50;;;7.80;;
817;SDS011;391;51.052;6.954;2022-07-25T08:20:58;9.27;;;8.47;;
817;SDS011;391;51.052;6.954;2022-07-25T08:23:04;6.67;;;6.17;;
817;SDS011;391;51.052;6.954;2022-07-25T08:25:08;9.73;;;7.77;;
817;SDS011;391;51.052;6.954;2022-07-25T08:27:15;7.73;;;7.03;;
817;SDS011;391;51.052;6.954;2022-07-25T08:29:18;7.03;;;6.43;;
817;SDS011;391;51.052;6.954;2022-07-25T08:31:28;7.30;;;6.60;;
817;SDS011;391;51.052;6.954;2022-07-25T08:33:33;7.90;;;7.30;;
817;SDS011;391;51.052;6.954;2022-07-25T08:35:37;7.87;;;7.27;;
817;SDS011;391;51.052;6.954;2022-07-25T08:37:42;7.73;;;7.13;;
817;SDS011;391;51.052;6.954;2022-07-25T08:39:46;7.93;;;7.33;;
817;SDS011;391;51.052;6.954;2022-07-25T08:41:50;7.00;;;6.50;;
817;SDS011;391;51.052;6.954;2022-07-25T08:43:54;7.70;;;6.60;;
817;SDS011;391;51.052;6.954;2022-07-25T08:45:58;7.80;;;7.20;;
817;SDS011;391;51.052;6.954;2022-07-25T08:48:04;7.20;;;6.70;;
817;SDS011;391;51.052;6.954;2022-07-25T08:50:11;6.90;;;6.40;;
817;SDS011;391;51.052;6.954;2022-07-25T08:52:16;6.87;;;6.27;;
817;SDS011;391;51.052;6.954;2022-07-25T08:54:20;7.30;;;6.70;;
817;SDS011;391;51.052;6.954;2022-07-25T08:56:25;6.77;;;6.37;;
817;SDS011;391;51.052;6.954;2022-07-25T08:58:28;7.13;;;6.43;;
817;SDS011;391;51.052;6.954;2022-07-25T09:00:32;6.80;;;6.30;;
817;SDS011;391;51.052;6.954;2022-07-25T09:02:35;7.33;;;6.70;;
817;SDS011;391;51.052;6.954;2022-07-25T09:04:39;6.87;;;6.37;;
817;SDS011;391;51.052;6.954;2022-07-25T09:06:49;7.30;;;6.70;;
817;SDS011;391;51.052;6.954;2022-07-25T09:08:54;7.80;;;7.23;;
817;SDS011;391;51.052;6.954;2022-07-25T09:10:59;7.97;;;7.27;;
817;SDS011;391;51.052;6.954;2022-07-25T09:13:03;7.77;;;7.13;;
817;SDS011;391;51.052;6.954;2022-07-25T09:15:11;7.10;;;6.50;;
817;SDS011;391;51.052;6.954;2022-07-25T09:17:26;7.20;;;6.50;;
817;SDS011;391;51.052;6.954;2022-07-25T09:19:30;7.27;;;6.67;;
817;SDS011;391;51.052;6.954;2022-07-25T09:21:34;6.60;;;6.00;;
817;SDS011;391;51.052;6.954;2022-07-25T09:23:40;7.27;;;6.73;;
817;SDS011;391;51.052;6.954;2022-07-25T09:25:43;7.20;;;6.60;;
817;SDS011;391;51.052;6.954;2022-07-25T09:27:47;8.37;;;7.70;;
817;SDS011;391;51.052;6.954;2022-07-25T09:29:50;7.50;;;7.00;;
817;SDS011;391;51.052;6.954;2022-07-25T09:31:54;7.17;;;6.67;;
817;SDS011;391;51.052;6.954;2022-07-25T09:33:58;7.07;;;6.57;;
817;SDS011;391;51.052;6.954;2022-07-25T09:36:08;6.97;;;6.47;;
817;SDS011;391;51.052;6.954;2022-07-25T09:38:13;7.40;;;6.70;;
817;SDS011;391;51.052;6.954;2022-07-25T09:40:20;6.77;;;6.23;;
817;SDS011;391;51.052;6.954;2022-07-25T09:42:25;8.93;;;8.17;;
817;SDS011;391;51.052;6.954;2022-07-25T09:44:29;8.33;;;7.50;;
817;SDS011;391;51.052;6.954;2022-07-25T09:46:33;6.53;;;6.10;;
817;SDS011;391;51.052;6.954;2022-07-25T09:48:38;7.80;;;7.10;;
817;SDS011;391;51.052;6.954;2022-07-25T09:50:42;7.90;;;7.20;;
817;SDS011;391;51.052;6.954;2022-07-25T09:52:46;7.37;;;6.67;;
817;SDS011;391;51.052;6.954;2022-07-25T09:54:50;8.27;;;7.57;;
817;SDS011;391;51.052;6.954;2022-07-25T09:56:57;6.90;;;6.30;;
817;SDS011;391;51.052;6.954;2022-07-25T09:59:00;6.20;;;5.80;;
817;SDS011;391;51.052;6.954;2022-07-25T10:01:05;7.37;;;6.77;;
817;SDS011;391;51.052;6.954;2022-07-25T10:03:20;7.20;;;6.50;;
817;SDS011;391;51.052;6.954;2022-07-25T10:05:36;7.07;;;6.47;;
817;SDS011;391;51.052;6.954;2022-07-25T10:07:47;7.20;;;6.60;;
817;SDS011;391;51.052;6.954;2022-07-25T10:09:54;6.90;;;6.33;;
817;SDS011;391;51.052;6.954;2022-07-25T10:12:06;7.27;;;6.70;;
817;SDS011;391;51.052;6.954;2022-07-25T10:14:11;8.20;;;7.50;;
817;SDS011;391;51.052;6.954;2022-07-25T10:16:15;6.87;;;6.27;;
817;SDS011;391;51.052;6.954;2022-07-25T10:18:21;7.03;;;6.40;;
817;SDS011;391;51.052;6.954;2022-07-25T10:20:26;7.60;;;5.87;;
817;SDS011;391;51.052;6.954;2022-07-25T10:22:37;6.50;;;6.00;;
817;SDS011;391;51.052;6.954;2022-07-25T10:25:05;6.23;;;5.73;;
817;SDS011;391;51.052;6.954;2022-07-25T10:27:16;7.13;;;6.53;;
817;SDS011;391;51.052;6.954;2022-07-25T10:29:31;8.00;;;7.33;;
817;SDS011;391;51.052;6.954;2022-07-25T10:31:37;5.90;;;5.40;;
817;SDS011;391;51.052;6.954;2022-07-25T10:33:52;8.00;;;6.33;;
817;SDS011;391;51.052;6.954;2022-07-25T10:36:04;6.57;;;5.97;;
817;SDS011;391;51.052;6.954;2022-07-25T10:38:08;5.87;;;5.43;;
817;SDS011;391;51.052;6.954;2022-07-25T10:40:23;6.57;;;6.00;;
817;SDS011;391;51.052;6.954;2022-07-25T10:42:31;6.57;;;6.03;;
817;SDS011;391;51.052;6.954;2022-07-25T10:44:39;7.43;;;6.90;;
817;SDS011;391;51.052;6.954;2022-07-25T10:46:44;6.03;;;5.53;;
817;SDS011;391;51.052;6.954;2022-07-25T10:48:56;6.87;;;6.27;;
817;SDS011;391;51.052;6.954;2022-07-25T10:51:02;6.47;;;5.97;;
817;SDS011;391;51.052;6.954;2022-07-25T10:53:08;7.73;;;6.03;;
817;SDS011;391;51.052;6.954;2022-07-25T10:55:20;6.80;;;6.10;;
817;SDS011;391;51.052;6.954;2022-07-25T10:57:25;6.30;;;5.80;;
817;SDS011;391;51.052;6.954;2022-07-25T10:59:34;6.97;;;6.37;;
817;SDS011;391;51.052;6.954;2022-07-25T11:01:39;9.10;;;6.17;;
817;SDS011;391;51.052;6.954;2022-07-25T11:03:46;7.33;;;6.63;;
817;SDS011;391;51.052;6.954;2022-07-25T11:05:49;6.90;;;6.20;;
817;SDS011;391;51.052;6.954;2022-07-25T11:07:55;6.40;;;5.80;;
817;SDS011;391;51.052;6.954;2022-07-25T11:10:23;7.27;;;6.57;;
817;SDS011;391;51.052;6.954;2022-07-25T11:12:28;5.87;;;5.37;;
817;SDS011;391;51.052;6.954;2022-07-25T11:14:32;6.20;;;5.70;;
817;SDS011;391;51.052;6.954;2022-07-25T11:16:38;7.50;;;5.87;;
817;SDS011;391;51.052;6.954;2022-07-25T11:18:42;6.60;;;6.00;;
817;SDS011;391;51.052;6.954;2022-07-25T11:20:45;6.13;;;5.50;;
817;SDS011;391;51.052;6.954;2022-07-25T11:22:50;5.80;;;5.30;;
817;SDS011;391;51.052;6.954;2022-07-25T11:24:54;5.90;;;5.30;;
817;SDS011;391;51.052;6.954;2022-07-25T11:26:58;5.93;;;5.50;;
817;SDS011;391;51.052;6.954;2022-07-25T11:29:02;5.97;;;5.50;;
817;SDS011;391;51.052;6.954;2022-07-25T11:31:08;6.70;;;5.33;;
817;SDS011;391;51.052;6.954;2022-07-25T11:33:12;6.10;;;5.60;;
817;SDS011;391;51.052;6.954;2022-07-25T11:35:20;5.77;;;5.17;;
817;SDS011;391;51.052;6.954;2022-07-25T11:37:26;6.50;;;6.00;;
817;SDS011;391;51.052;6.954;2022-07-25T11:39:30;6.40;;;5.97;;
817;SDS011;391;51.052;6.954;2022-07-25T11:41:34;5.37;;;4.87;;
817;SDS011;391;51.052;6.954;2022-07-25T11:43:46;5.60;;;4.97;;
817;SDS011;391;51.052;6.954;2022-07-25T11:45:56;8.13;;;5.33;;
817;SDS011;391;51.052;6.954;2022-07-25T11:48:06;5.50;;;5.10;;
817;SDS011;391;51.052;6.954;2022-07-25T11:50:10;5.10;;;4.80;;
817;SDS011;391;51.052;6.954;2022-07-25T11:52:17;5.00;;;4.60;;
817;SDS011;391;51.052;6.954;2022-07-25T11:54:22;5.40;;;5.00;;
817;SDS011;391;51.052;6.954;2022-07-25T11:56:26;4.93;;;4.27;;
817;SDS011;391;51.052;6.954;2022-07-25T11:58:57;8.57;;;4.70;;
817;SDS011;391;51.052;6.954;2022-07-25T12:01:09;5.30;;;4.90;;
817;SDS011;391;51.052;6.954;2022-07-25T12:03:16;4.73;;;4.33;;
817;SDS011;391;51.052;6.954;2022-07-25T12:05:29;5.30;;;4.90;;
817;SDS011;391;51.052;6.954;2022-07-25T12:07:35;7.00;;;5.10;;
817;SDS011;391;51.052;6.954;2022-07-25T12:09:39;4.57;;;4.20;;
817;SDS011;391;51.052;6.954;2022-07-25T12:11:43;4.97;;;4.60;;
817;SDS011;391;51.052;6.954;2022-07-25T12:13:48;5.30;;;4.90;;
817;SDS011;391;51.052;6.954;2022-07-25T12:15:52;5.53;;;5.03;;
817;SDS011;391;51.052;6.954;2022-07-25T12:17:57;5.57;;;5.10;;
817;SDS011;391;51.052;6.954;2022-07-25T12:20:04;5.47;;;5.07;;
817;SDS011;391;51.052;6.954;2022-07-25T12:22:15;5.87;;;5.30;;
817;SDS011;391;51.052;6.954;2022-07-25T12:24:18;4.93;;;4.53;;
817;SDS011;391;51.052;6.954;2022-07-25T12:26:22;5.40;;;5.00;;
817;SDS011;391;51.052;6.954;2022-07-25T12:28:25;6.43;;;5.60;;
817;SDS011;391;51.052;6.954;2022-07-25T12:30:30;4.47;;;3.97;;
817;SDS011;391;51.052;6.954;2022-07-25T12:32:35;5.67;;;4.10;;
817;SDS011;391;51.052;6.954;2022-07-25T12:34:39;4.57;;;4.17;;
817;SDS011;391;51.052;6.954;2022-07-25T12:36:44;4.90;;;4.50;;
817;SDS011;391;51.052;6.954;2022-07-25T12:38:48;4.40;;;4.10;;
817;SDS011;391;51.052;6.954;2022-07-25T12:40:51;4.70;;;4.20;;
817;SDS011;391;51.052;6.954;2022-07-25T12:42:55;4.37;;;3.97;;
817;SDS011;391;51.052;6.954;2022-07-25T12:44:59;4.37;;;4.03;;
817;SDS011;391;51.052;6.954;2022-07-25T12:47:03;6.67;;;5.10;;
817;SDS011;391;51.052;6.954;2022-07-25T12:49:07;5.43;;;4.60;;
817;SDS011;391;51.052;6.954;2022-07-25T12:51:11;4.33;;;4.00;;
817;SDS011;391;51.052;6.954;2022-07-25T12:53:16;4.63;;;4.20;;
817;SDS011;391;51.052;6.954;2022-07-25T12:55:20;4.87;;;3.63;;
817;SDS011;391;51.052;6.954;2022-07-25T12:57:23;4.60;;;3.97;;
817;SDS011;391;51.052;6.954;2022-07-25T12:59:27;4.60;;;3.83;;
817;SDS011;391;51.052;6.954;2022-07-25T13:01:30;3.90;;;3.50;;
817;SDS011;391;51.052;6.954;2022-07-25T13:03:34;3.93;;;3.63;;
817;SDS011;391;51.052;6.954;2022-07-25T13:05:38;4.37;;;4.00;;
817;SDS011;391;51.052;6.954;2022-07-25T13:07:41;4.23;;;3.57;;
817;SDS011;391;51.052;6.954;2022-07-25T13:09:47;4.03;;;3.23;;
817;SDS011;391;51.052;6.954;2022-07-25T13:11:50;3.30;;;3.00;;
817;SDS011;391;51.052;6.954;2022-07-25T13:13:54;4.10;;;3.80;;
817;SDS011;391;51.052;6.954;2022-07-25T13:15:57;3.50;;;3.27;;
817;SDS011;391;51.052;6.954;2022-07-25T13:18:01;5.20;;;3.40;;
817;SDS011;391;51.052;6.954;2022-07-25T13:20:06;4.40;;;3.60;;
817;SDS011;391;51.052;6.954;2022-07-25T13:22:10;3.10;;;2.90;;